KHMN/HMN METAR and TAF weather

Enter ICAO airport designator
Station Type Date Time Source
KHMN METAR 2020/06/05 07:58 UTC NOAA

KHMN 050758Z AUTO 13007KT 10SM CLR 26/02 A2990 RMK AO2 SLP043 T02550022 $


Station Type Date Time Source
KHMN Decoded METAR 2020/06/05 07:58 UTC NOAA

Holloman Air Force Base, NM, United States (KHMN) 32-51N 106-06W 1248M
Jun 05, 2020 - 03:58 AM EDT / 2020.06.05 0758 UTC
Wind: from the SE (130 degrees) at 8 MPH (7 KT):0
Visibility: 10 mile(s):0
Sky conditions: clear
Temperature: 77.9 F (25.5 C)
Dew Point: 36.0 F (2.2 C)
Relative Humidity: 21%
Pressure (altimeter): 29.9 in. Hg (1012 hPa)
ob: KHMN 050758Z AUTO 13007KT 10SM CLR 26/02 A2990 RMK AO2 SLP043 T02550022
cycle: 8

Station Type Date Time Source
KHMN TAF 2020/06/05 02:56 UTC NOAA

TAF
AMD KHMN 050250Z 0502/0607 29009KT 9999 SCT120 QNH2988INS
BECMG 0503/0504 VRB06KT 9999 FEW120 SCT200 QNH2994INS
BECMG 0513/0514 26009KT 9999 FEW200 QNH3000INS
BECMG 0518/0519 24012G18KT 9999 FEW140 SCT200 QNH2998INS TS OMTNS
TEMPO 0521/0601 VRB20G30KT 9000 -TSRA BKN140CB BKN200
BECMG 0602/0603 20009KT 9999 FEW140 SCT200 QNH2994INS TX38/0522Z TN19/0512Z

Example: see airport list